Time;durP1;ratioP1;P1;durP2;ratioP2;P2;SDS_P1;SDS_P2;PMS_P1;PMS_P2;Temp;Humidity;BMP_temperature;BMP_pressure;BME280_temperature;BME280_humidity;BME280_pressure;Samples;Min_cycle;Max_cycle;Signal;HPM_P1;HPM_P2
2021/09/05 00:01:04;;;;;;;26.83;16.92;;;;;;;;;;5013156;28;20049;-63
2021/09/05 00:03:29;;;;;;;28.50;16.42;;;;;;;;;;5013362;28;20456;-64
2021/09/05 00:05:54;;;;;;;28.10;15.73;;;;;;;;;;5012826;28;20042;-63
2021/09/05 00:08:19;;;;;;;26.08;15.13;;;;;;;;;;5012972;28;20058;-64
2021/09/05 00:10:45;;;;;;;22.27;15.07;;;;;;;;;;5011556;28;20038;-64
2021/09/05 00:13:10;;;;;;;23.38;14.80;;;;;;;;;;5013239;28;20096;-64
2021/09/05 00:15:35;;;;;;;24.23;15.18;;;;;;;;;;5012816;28;20385;-64
2021/09/05 00:18:00;;;;;;;23.35;15.15;;;;;;;;;;5013200;28;20029;-64
2021/09/05 00:20:26;;;;;;;26.48;15.80;;;;;;;;;;5012642;28;20120;-63
2021/09/05 00:22:51;;;;;;;25.25;15.88;;;;;;;;;;5012938;28;20061;-63
2021/09/05 00:25:16;;;;;;;28.77;16.42;;;;;;;;;;5010607;28;20049;-64
2021/09/05 00:27:41;;;;;;;24.15;15.88;;;;;;;;;;5013066;28;20018;-64
2021/09/05 00:30:07;;;;;;;27.45;14.68;;;;;;;;;;5013473;28;20492;-64
2021/09/05 00:32:32;;;;;;;29.55;16.27;;;;;;;;;;5032581;28;20025;-63
2021/09/05 00:34:57;;;;;;;26.02;16.05;;;;;;;;;;5031484;28;20029;-64
2021/09/05 00:37:23;;;;;;;36.45;17.58;;;;;;;;;;5032306;28;20488;-64
2021/09/05 00:39:48;;;;;;;24.55;15.60;;;;;;;;;;5032935;28;20523;-64
2021/09/05 00:42:20;;;;;;;29.70;15.93;;;;;;;;;;5014063;28;20057;-64
2021/09/05 00:44:45;;;;;;;27.75;15.90;;;;;;;;;;5012843;28;20025;-63
2021/09/05 00:47:11;;;;;;;28.02;16.92;;;;;;;;;;5012335;28;20030;-64
2021/09/05 00:49:36;;;;;;;23.88;15.55;;;;;;;;;;5012783;28;20095;-63
2021/09/05 00:52:01;;;;;;;24.30;16.25;;;;;;;;;;5028811;28;20049;-64
2021/09/05 00:54:26;;;;;;;26.08;15.23;;;;;;;;;;5032665;28;20037;-63
2021/09/05 00:56:51;;;;;;;21.73;14.35;;;;;;;;;;5032173;28;20546;-64
2021/09/05 00:59:19;;;;;;;24.58;15.10;;;;;;;;;;5033228;28;20395;-63
2021/09/05 01:01:45;;;;;;;23.73;14.82;;;;;;;;;;5021707;28;20481;-63
2021/09/05 01:04:10;;;;;;;24.83;16.30;;;;;;;;;;5015317;28;20028;-63
2021/09/05 01:06:36;;;;;;;30.95;15.07;;;;;;;;;;5015753;28;20038;-63
2021/09/05 01:09:01;;;;;;;21.52;13.98;;;;;;;;;;5016284;28;20057;-63
2021/09/05 01:11:26;;;;;;;23.08;13.57;;;;;;;;;;5016059;28;20076;-63
2021/09/05 01:13:51;;;;;;;22.67;13.82;;;;;;;;;;5016421;28;20026;-63
2021/09/05 01:16:27;;;;;;;27.08;15.10;;;;;;;;;;5016090;28;20192;-64
2021/09/05 01:18:52;;;;;;;24.15;14.30;;;;;;;;;;5014862;28;20079;-63
2021/09/05 01:21:17;;;;;;;22.80;13.75;;;;;;;;;;5015825;28;20038;-64
2021/09/05 01:23:42;;;;;;;23.27;14.15;;;;;;;;;;5014998;28;20080;-63
2021/09/05 01:26:08;;;;;;;26.25;14.77;;;;;;;;;;5016014;28;20113;-63
2021/09/05 01:28:33;;;;;;;26.83;15.43;;;;;;;;;;5016057;28;20147;-64
2021/09/05 01:30:58;;;;;;;25.77;15.77;;;;;;;;;;5014346;28;20041;-64
2021/09/05 01:33:23;;;;;;;26.05;15.55;;;;;;;;;;5015958;28;20491;-64
2021/09/05 01:35:49;;;;;;;25.10;15.48;;;;;;;;;;5015553;28;20109;-63
2021/09/05 01:38:14;;;;;;;25.50;14.60;;;;;;;;;;5014904;28;20060;-63
2021/09/05 01:40:39;;;;;;;26.33;14.65;;;;;;;;;;5015483;28;20030;-63
2021/09/05 01:43:04;;;;;;;29.25;16.27;;;;;;;;;;5015845;28;20022;-63
2021/09/05 01:45:29;;;;;;;25.40;15.35;;;;;;;;;;5015482;28;20041;-64
2021/09/05 01:47:55;;;;;;;31.45;15.45;;;;;;;;;;5015667;28;20064;-64
2021/09/05 01:50:20;;;;;;;25.92;15.05;;;;;;;;;;5015145;28;20108;-63
2021/09/05 01:52:45;;;;;;;25.45;15.68;;;;;;;;;;5015664;28;20105;-63
2021/09/05 01:55:11;;;;;;;26.17;14.93;;;;;;;;;;5015287;28;20341;-64
2021/09/05 01:57:36;;;;;;;24.83;14.88;;;;;;;;;;5015611;28;20358;-63
2021/09/05 02:00:01;;;;;;;23.60;13.95;;;;;;;;;;5015027;28;20100;-64
2021/09/05 02:02:27;;;;;;;24.20;13.45;;;;;;;;;;5015432;28;20026;-64
2021/09/05 02:04:52;;;;;;;24.45;15.55;;;;;;;;;;5015460;28;20022;-63
2021/09/05 02:07:19;;;;;;;26.77;15.35;;;;;;;;;;5015069;28;20040;-63
2021/09/05 02:09:44;;;;;;;32.10;16.83;;;;;;;;;;5015064;28;20184;-64
2021/09/05 02:12:09;;;;;;;26.80;15.35;;;;;;;;;;5014033;28;20129;-64
2021/09/05 02:14:34;;;;;;;30.15;17.60;;;;;;;;;;5015261;28;20093;-64
2021/09/05 02:16:59;;;;;;;25.05;14.82;;;;;;;;;;5014796;28;20033;-64
2021/09/05 02:19:26;;;;;;;26.15;15.98;;;;;;;;;;5015118;28;20029;-64
2021/09/05 02:21:51;;;;;;;25.75;15.40;;;;;;;;;;5014624;28;20435;-64
2021/09/05 02:24:17;;;;;;;29.67;15.88;;;;;;;;;;5014093;28;20101;-63
2021/09/05 02:26:42;;;;;;;28.77;15.85;;;;;;;;;;5014673;28;20457;-63
2021/09/05 02:29:07;;;;;;;31.50;17.35;;;;;;;;;;5015046;28;20032;-63
2021/09/05 02:31:32;;;;;;;31.05;17.10;;;;;;;;;;5013134;28;20042;-64
2021/09/05 02:33:57;;;;;;;31.90;17.40;;;;;;;;;;5014789;28;20193;-63
2021/09/05 02:36:25;;;;;;;31.10;16.73;;;;;;;;;;5014544;28;20117;-64
2021/09/05 02:38:50;;;;;;;31.45;16.92;;;;;;;;;;5013512;28;20029;-64
2021/09/05 02:41:15;;;;;;;30.60;16.67;;;;;;;;;;5014138;28;20026;-64
2021/09/05 02:43:40;;;;;;;33.80;15.93;;;;;;;;;;5014933;28;20036;-64
2021/09/05 02:46:06;;;;;;;27.27;16.70;;;;;;;;;;5014282;28;20029;-64
2021/09/05 02:48:31;;;;;;;34.28;18.10;;;;;;;;;;5014604;28;20017;-64
2021/09/05 02:50:56;;;;;;;32.83;19.83;;;;;;;;;;5014133;28;20542;-64
2021/09/05 02:53:21;;;;;;;30.95;17.83;;;;;;;;;;5014830;28;20480;-64
2021/09/05 02:55:47;;;;;;;31.10;18.60;;;;;;;;;;5014275;28;20499;-63
2021/09/05 02:58:12;;;;;;;35.85;19.63;;;;;;;;;;5014572;28;20504;-63
2021/09/05 03:00:37;;;;;;;33.85;19.48;;;;;;;;;;5014054;28;20033;-63
2021/09/05 03:03:02;;;;;;;34.80;18.85;;;;;;;;;;5013940;28;20041;-64
2021/09/05 03:05:27;;;;;;;42.03;21.30;;;;;;;;;;5014161;28;20484;-64
2021/09/05 03:07:53;;;;;;;36.30;19.42;;;;;;;;;;5014455;28;20461;-63
2021/09/05 03:10:18;;;;;;;38.55;21.85;;;;;;;;;;5013723;28;20049;-63
2021/09/05 03:12:43;;;;;;;38.35;20.85;;;;;;;;;;5014216;28;20034;-63
2021/09/05 03:15:09;;;;;;;32.22;19.88;;;;;;;;;;5013825;28;20018;-64
2021/09/05 03:17:34;;;;;;;33.80;19.88;;;;;;;;;;5014086;28;20026;-63
2021/09/05 03:19:59;;;;;;;30.45;18.55;;;;;;;;;;5014130;28;20505;-63
2021/09/05 03:22:24;;;;;;;34.78;20.52;;;;;;;;;;5013442;28;20033;-64
2021/09/05 03:24:50;;;;;;;37.28;18.73;;;;;;;;;;5014107;28;20108;-63
2021/09/05 03:27:15;;;;;;;29.27;16.98;;;;;;;;;;5013644;28;20060;-64
2021/09/05 03:29:40;;;;;;;28.60;16.35;;;;;;;;;;5014094;28;20487;-64
2021/09/05 03:32:05;;;;;;;27.50;16.67;;;;;;;;;;5013113;28;20408;-64
2021/09/05 03:34:31;;;;;;;29.67;17.08;;;;;;;;;;5013676;28;20117;-64
2021/09/05 03:36:56;;;;;;;31.10;17.25;;;;;;;;;;5013253;28;20042;-64
2021/09/05 03:39:21;;;;;;;28.63;16.85;;;;;;;;;;5013612;28;20014;-63
2021/09/05 03:41:46;;;;;;;38.50;17.98;;;;;;;;;;5013133;28;20065;-63
2021/09/05 03:44:12;;;;;;;33.05;18.45;;;;;;;;;;5013585;28;20022;-64
2021/09/05 03:46:37;;;;;;;34.95;18.55;;;;;;;;;;5012843;28;20046;-63
2021/09/05 03:49:02;;;;;;;37.28;19.50;;;;;;;;;;5013314;28;20014;-63
2021/09/05 03:51:27;;;;;;;41.17;20.40;;;;;;;;;;5012880;28;20065;-63
2021/09/05 03:53:52;;;;;;;37.72;19.67;;;;;;;;;;5013417;28;20093;-63
2021/09/05 03:56:18;;;;;;;32.83;19.15;;;;;;;;;;5013017;28;20034;-63
2021/09/05 03:58:43;;;;;;;37.80;19.98;;;;;;;;;;5013330;28;20022;-63
2021/09/05 04:01:08;;;;;;;41.63;21.52;;;;;;;;;;5012794;28;20442;-63
2021/09/05 04:03:34;;;;;;;40.70;19.80;;;;;;;;;;5013039;28;20029;-64
2021/09/05 04:05:59;;;;;;;34.47;18.75;;;;;;;;;;5012950;28;20037;-63
2021/09/05 04:08:38;;;;;;;39.30;19.52;;;;;;;;;;5013095;28;20038;-64
2021/09/05 04:11:03;;;;;;;39.00;19.33;;;;;;;;;;5012688;28;20067;-64
2021/09/05 04:13:28;;;;;;;33.78;18.70;;;;;;;;;;5013126;28;20017;-63
2021/09/05 04:15:53;;;;;;;35.50;18.75;;;;;;;;;;5012524;28;20022;-63
2021/09/05 04:18:19;;;;;;;28.05;16.83;;;;;;;;;;5013239;28;20040;-63
2021/09/05 04:20:44;;;;;;;33.65;16.10;;;;;;;;;;5012699;28;20026;-64
2021/09/05 04:23:09;;;;;;;36.15;19.95;;;;;;;;;;5012861;28;20028;-64
2021/09/05 04:25:34;;;;;;;37.70;21.05;;;;;;;;;;5012304;28;20096;-63
2021/09/05 04:28:00;;;;;;;33.40;17.58;;;;;;;;;;5013025;28;20017;-63
2021/09/05 04:30:25;;;;;;;28.40;17.35;;;;;;;;;;5012212;28;20034;-63
2021/09/05 04:32:51;;;;;;;30.40;17.67;;;;;;;;;;5012948;28;20084;-64
2021/09/05 04:35:16;;;;;;;34.08;18.30;;;;;;;;;;5011949;28;20018;-64
2021/09/05 04:37:41;;;;;;;36.22;19.13;;;;;;;;;;5012756;28;20345;-63
2021/09/05 04:40:07;;;;;;;43.75;19.33;;;;;;;;;;5012202;28;20109;-64
2021/09/05 04:42:33;;;;;;;37.60;20.45;;;;;;;;;;5011291;28;20022;-63
2021/09/05 04:44:59;;;;;;;39.38;21.38;;;;;;;;;;5012675;28;20022;-63
2021/09/05 04:47:24;;;;;;;33.20;18.85;;;;;;;;;;5012018;28;20038;-63
2021/09/05 04:49:49;;;;;;;38.30;19.83;;;;;;;;;;5012636;28;20064;-63
2021/09/05 04:52:14;;;;;;;40.03;20.60;;;;;;;;;;5012097;28;20064;-63
2021/09/05 04:54:39;;;;;;;34.13;19.27;;;;;;;;;;5012500;28;20023;-64
2021/09/05 04:57:05;;;;;;;40.83;20.20;;;;;;;;;;5012122;28;20034;-63
2021/09/05 04:59:30;;;;;;;39.38;19.90;;;;;;;;;;5012079;28;20473;-63
2021/09/05 05:01:56;;;;;;;33.60;18.88;;;;;;;;;;5012317;28;20034;-63
2021/09/05 05:04:21;;;;;;;36.22;18.65;;;;;;;;;;5012468;28;20033;-64
2021/09/05 05:06:46;;;;;;;34.30;17.83;;;;;;;;;;5012059;28;20113;-63
2021/09/05 05:09:12;;;;;;;34.03;18.05;;;;;;;;;;5012371;28;20047;-64
2021/09/05 05:11:40;;;;;;;29.85;17.00;;;;;;;;;;5012110;28;20042;-63
2021/09/05 05:14:05;;;;;;;30.85;16.73;;;;;;;;;;5012373;28;20484;-63
2021/09/05 05:16:31;;;;;;;32.63;16.95;;;;;;;;;;5011935;28;20072;-63
2021/09/05 05:18:56;;;;;;;31.52;15.82;;;;;;;;;;5012357;28;20346;-63
2021/09/05 05:21:22;;;;;;;29.25;16.83;;;;;;;;;;5011874;28;20103;-63
2021/09/05 05:23:47;;;;;;;28.85;14.88;;;;;;;;;;5012510;28;20029;-63
2021/09/05 05:26:12;;;;;;;27.30;15.25;;;;;;;;;;5011833;28;20054;-64
2021/09/05 05:28:38;;;;;;;32.53;17.92;;;;;;;;;;5012230;28;20524;-64
2021/09/05 05:31:03;;;;;;;24.70;14.75;;;;;;;;;;5011757;28;20460;-64
2021/09/05 05:33:28;;;;;;;30.48;16.75;;;;;;;;;;5012360;28;20030;-64
2021/09/05 05:35:53;;;;;;;26.73;15.98;;;;;;;;;;5012044;28;20026;-64
2021/09/05 05:38:19;;;;;;;31.42;17.33;;;;;;;;;;5012369;28;20361;-64
2021/09/05 05:40:44;;;;;;;28.08;15.98;;;;;;;;;;5011929;28;20031;-64
2021/09/05 05:43:09;;;;;;;27.35;15.63;;;;;;;;;;5012242;28;20097;-64
2021/09/05 05:45:34;;;;;;;29.13;16.73;;;;;;;;;;5011813;28;20034;-64
2021/09/05 05:48:00;;;;;;;27.60;16.92;;;;;;;;;;5013991;28;20421;-64
2021/09/05 05:50:25;;;;;;;28.67;14.32;;;;;;;;;;5015429;28;20115;-64
2021/09/05 05:52:51;;;;;;;22.63;13.90;;;;;;;;;;5015655;28;20025;-64
2021/09/05 05:55:16;;;;;;;20.77;13.13;;;;;;;;;;5015275;28;20073;-64
2021/09/05 05:57:41;;;;;;;25.55;14.35;;;;;;;;;;5015492;28;20026;-64
2021/09/05 06:00:07;;;;;;;20.60;13.95;;;;;;;;;;5014940;28;20032;-64
2021/09/05 06:02:32;;;;;;;22.10;14.05;;;;;;;;;;5015771;28;20053;-64
2021/09/05 06:04:57;;;;;;;24.00;13.55;;;;;;;;;;5015507;28;20448;-64
2021/09/05 06:07:24;;;;;;;23.10;13.25;;;;;;;;;;5015080;28;20041;-64
2021/09/05 06:09:49;;;;;;;17.10;12.27;;;;;;;;;;5015289;28;20448;-64
2021/09/05 06:12:14;;;;;;;19.33;12.87;;;;;;;;;;5014857;28;20536;-65
2021/09/05 06:14:40;;;;;;;19.23;11.85;;;;;;;;;;5015231;28;20255;-64
2021/09/05 06:17:05;;;;;;;19.20;12.82;;;;;;;;;;5014795;28;20045;-64
2021/09/05 06:19:30;;;;;;;19.25;12.05;;;;;;;;;;5015354;28;20073;-64
2021/09/05 06:21:55;;;;;;;19.92;13.57;;;;;;;;;;5013474;28;20030;-64
2021/09/05 06:24:21;;;;;;;15.77;11.82;;;;;;;;;;5015246;28;20049;-64
2021/09/05 06:26:46;;;;;;;17.70;12.80;;;;;;;;;;5013694;28;20117;-64
2021/09/05 06:29:11;;;;;;;19.52;12.98;;;;;;;;;;5014869;28;20107;-64
2021/09/05 06:31:36;;;;;;;20.33;13.57;;;;;;;;;;5014607;28;20045;-65
2021/09/05 06:34:02;;;;;;;19.85;12.93;;;;;;;;;;5014781;28;20259;-65
2021/09/05 06:36:27;;;;;;;16.70;12.25;;;;;;;;;;5014484;28;20045;-64
2021/09/05 06:38:52;;;;;;;18.20;12.90;;;;;;;;;;5014921;28;20014;-64
2021/09/05 06:41:17;;;;;;;17.85;12.60;;;;;;;;;;5014267;28;20287;-64
2021/09/05 06:43:42;;;;;;;22.23;13.30;;;;;;;;;;5014813;28;20034;-64
2021/09/05 06:46:08;;;;;;;21.87;13.50;;;;;;;;;;5014271;28;20022;-64
2021/09/05 06:48:33;;;;;;;20.50;13.25;;;;;;;;;;5014671;28;20665;-65
2021/09/05 06:50:58;;;;;;;17.90;12.53;;;;;;;;;;5014086;28;20073;-65
2021/09/05 06:53:23;;;;;;;17.08;12.50;;;;;;;;;;5014745;28;20270;-64
2021/09/05 06:55:49;;;;;;;20.27;13.18;;;;;;;;;;5014342;28;20439;-64
2021/09/05 06:58:14;;;;;;;17.63;12.50;;;;;;;;;;5014238;28;20069;-64
2021/09/05 07:00:39;;;;;;;20.50;12.37;;;;;;;;;;5013855;28;20302;-64
2021/09/05 07:03:04;;;;;;;19.60;13.17;;;;;;;;;;5014227;28;20255;-65
2021/09/05 07:05:29;;;;;;;19.95;13.70;;;;;;;;;;5013983;28;20255;-64
2021/09/05 07:07:55;;;;;;;21.38;13.43;;;;;;;;;;5014505;28;20112;-64
2021/09/05 07:10:21;;;;;;;20.13;13.80;;;;;;;;;;5013734;28;20559;-65
2021/09/05 07:12:46;;;;;;;18.98;13.70;;;;;;;;;;5014290;28;20034;-64
2021/09/05 07:15:11;;;;;;;21.88;14.73;;;;;;;;;;5012423;28;20028;-64
2021/09/05 07:17:36;;;;;;;23.35;14.00;;;;;;;;;;5014429;28;20018;-64
2021/09/05 07:20:02;;;;;;;20.30;13.63;;;;;;;;;;5013729;28;20018;-64
2021/09/05 07:22:27;;;;;;;17.98;13.30;;;;;;;;;;5014197;28;20060;-64
2021/09/05 07:24:52;;;;;;;20.73;13.57;;;;;;;;;;5013975;28;20053;-64
2021/09/05 07:27:18;;;;;;;19.53;14.10;;;;;;;;;;5013481;28;20271;-64
2021/09/05 07:29:43;;;;;;;25.27;14.03;;;;;;;;;;5013683;28;20618;-64
2021/09/05 07:32:08;;;;;;;20.03;13.43;;;;;;;;;;5013345;28;20649;-64
2021/09/05 07:34:33;;;;;;;19.25;13.63;;;;;;;;;;5013955;28;20760;-64
2021/09/05 07:36:58;;;;;;;24.05;14.70;;;;;;;;;;5013437;28;20034;-64
2021/09/05 07:39:24;;;;;;;21.33;15.33;;;;;;;;;;5013902;28;20156;-64
2021/09/05 07:41:49;;;;;;;19.73;14.90;;;;;;;;;;5013371;28;20353;-64
2021/09/05 07:44:14;;;;;;;21.00;15.77;;;;;;;;;;5013768;28;20072;-65
2021/09/05 07:46:39;;;;;;;24.23;14.98;;;;;;;;;;5013231;28;20065;-64
2021/09/05 07:49:05;;;;;;;21.17;14.50;;;;;;;;;;5012382;28;20018;-64
2021/09/05 07:51:30;;;;;;;24.03;14.37;;;;;;;;;;5013076;28;20647;-64
2021/09/05 07:53:55;;;;;;;23.27;15.00;;;;;;;;;;5013553;28;20811;-64
2021/09/05 07:56:20;;;;;;;26.25;15.20;;;;;;;;;;5012964;28;20640;-64
2021/09/05 07:58:46;;;;;;;21.35;14.70;;;;;;;;;;5012193;28;20400;-64
2021/09/05 08:01:11;;;;;;;24.08;15.93;;;;;;;;;;5011551;28;20065;-64
2021/09/05 08:03:39;;;;;;;27.30;14.82;;;;;;;;;;5013523;28;20037;-64
2021/09/05 08:06:05;;;;;;;21.45;14.70;;;;;;;;;;5013104;28;20385;-64
2021/09/05 08:08:30;;;;;;;23.23;15.27;;;;;;;;;;5012697;28;20523;-64
2021/09/05 08:10:55;;;;;;;20.13;14.27;;;;;;;;;;5012511;28;20494;-64
2021/09/05 08:13:21;;;;;;;19.52;14.40;;;;;;;;;;5013121;28;20026;-64
2021/09/05 08:15:46;;;;;;;21.23;15.90;;;;;;;;;;5012793;28;20030;-64
2021/09/05 08:18:11;;;;;;;23.08;15.48;;;;;;;;;;5013302;28;20263;-64
2021/09/05 08:20:36;;;;;;;22.95;15.15;;;;;;;;;;5012492;28;20044;-64
2021/09/05 08:23:02;;;;;;;23.95;15.10;;;;;;;;;;5013122;28;20030;-65
2021/09/05 08:25:27;;;;;;;24.65;15.30;;;;;;;;;;5012837;28;20034;-64
2021/09/05 08:27:52;;;;;;;24.92;14.43;;;;;;;;;;5012805;28;20014;-64
2021/09/05 08:30:17;;;;;;;24.00;14.35;;;;;;;;;;5012577;28;20080;-64
2021/09/05 08:32:43;;;;;;;23.73;15.52;;;;;;;;;;5012686;28;20357;-64
2021/09/05 08:35:08;;;;;;;23.75;14.23;;;;;;;;;;5011716;28;20014;-64
2021/09/05 08:37:33;;;;;;;20.92;14.38;;;;;;;;;;5012928;28;20029;-64
2021/09/05 08:40:01;;;;;;;21.17;14.40;;;;;;;;;;5012963;28;20022;-64
2021/09/05 08:42:27;;;;;;;23.08;14.75;;;;;;;;;;5012593;28;20046;-64
2021/09/05 08:44:53;;;;;;;21.05;13.55;;;;;;;;;;5012939;28;20072;-64
2021/09/05 08:47:18;;;;;;;22.02;15.07;;;;;;;;;;5012297;28;20034;-65
2021/09/05 08:49:43;;;;;;;22.10;14.13;;;;;;;;;;5012915;28;20492;-64
2021/09/05 08:52:09;;;;;;;22.85;15.15;;;;;;;;;;5011957;28;20042;-64
2021/09/05 08:54:34;;;;;;;21.98;14.05;;;;;;;;;;5012663;28;20120;-64
2021/09/05 08:57:00;;;;;;;24.98;14.73;;;;;;;;;;5012140;28;20037;-64
2021/09/05 08:59:25;;;;;;;22.23;13.90;;;;;;;;;;5012775;28;20108;-65
2021/09/05 09:01:51;;;;;;;21.85;14.77;;;;;;;;;;5012140;28;20405;-64
2021/09/05 09:04:16;;;;;;;22.20;14.57;;;;;;;;;;5012546;28;20018;-64
2021/09/05 09:06:42;;;;;;;20.63;13.90;;;;;;;;;;5012673;28;20121;-64
2021/09/05 09:09:07;;;;;;;20.63;14.40;;;;;;;;;;5012552;28;20151;-64
2021/09/05 09:11:52;;;;;;;19.65;13.40;;;;;;;;;;5010929;28;20052;-64
2021/09/05 09:14:17;;;;;;;18.05;13.45;;;;;;;;;;5012829;28;20111;-64
2021/09/05 09:16:42;;;;;;;18.92;13.48;;;;;;;;;;5012320;28;20508;-65
2021/09/05 09:19:08;;;;;;;18.02;13.00;;;;;;;;;;5012590;28;20101;-64
2021/09/05 09:21:37;;;;;;;22.27;13.63;;;;;;;;;;5013384;28;20038;-65
2021/09/05 09:24:13;;;;;;;20.85;13.30;;;;;;;;;;5016229;28;20722;-64
2021/09/05 09:26:38;;;;;;;18.30;13.07;;;;;;;;;;5015680;28;20034;-64
2021/09/05 09:29:03;;;;;;;22.63;12.95;;;;;;;;;;5016294;28;20472;-65
2021/09/05 09:31:28;;;;;;;23.30;14.13;;;;;;;;;;5014370;28;20541;-65
2021/09/05 09:33:54;;;;;;;21.73;13.68;;;;;;;;;;5016115;28;20034;-64
2021/09/05 09:36:23;;;;;;;23.33;13.13;;;;;;;;;;5015862;28;20034;-65
2021/09/05 09:38:54;;;;;;;20.57;12.33;;;;;;;;;;5015945;28;20104;-65
2021/09/05 09:41:19;;;;;;;17.13;12.50;;;;;;;;;;5015443;28;20433;-64
2021/09/05 09:43:55;;;;;;;23.75;12.73;;;;;;;;;;5016013;28;20018;-65
2021/09/05 09:46:22;;;;;;;19.48;13.07;;;;;;;;;;5015757;28;20042;-65
2021/09/05 09:48:48;;;;;;;19.17;12.57;;;;;;;;;;5015817;28;20472;-65
2021/09/05 09:51:13;;;;;;;16.55;12.48;;;;;;;;;;5015371;28;20095;-64
2021/09/05 09:53:40;;;;;;;19.33;12.35;;;;;;;;;;5015764;28;20357;-65
2021/09/05 09:56:05;;;;;;;20.60;13.63;;;;;;;;;;5015270;28;20456;-64
2021/09/05 09:58:30;;;;;;;22.67;13.50;;;;;;;;;;5015701;28;20036;-65
2021/09/05 10:00:56;;;;;;;18.38;13.60;;;;;;;;;;5013758;28;20032;-64
2021/09/05 10:03:21;;;;;;;18.42;12.65;;;;;;;;;;5014187;28;20030;-64
2021/09/05 10:05:46;;;;;;;20.58;12.30;;;;;;;;;;5013541;28;20029;-64
2021/09/05 10:08:11;;;;;;;19.58;13.25;;;;;;;;;;5013804;28;20120;-65
2021/09/05 10:10:37;;;;;;;19.20;12.90;;;;;;;;;;5015148;28;20061;-65
2021/09/05 10:13:02;;;;;;;20.10;13.05;;;;;;;;;;5014215;28;20389;-65
2021/09/05 10:15:27;;;;;;;18.40;12.50;;;;;;;;;;5014799;28;20025;-65
2021/09/05 10:17:52;;;;;;;17.80;11.77;;;;;;;;;;5015230;28;20084;-65
2021/09/05 10:20:18;;;;;;;16.40;12.17;;;;;;;;;;5013436;28;20022;-65
2021/09/05 10:22:43;;;;;;;18.27;11.90;;;;;;;;;;5013819;28;20602;-65
2021/09/05 10:25:08;;;;;;;18.15;11.40;;;;;;;;;;5014950;28;20605;-65
2021/09/05 10:27:34;;;;;;;22.58;12.77;;;;;;;;;;5015003;28;20029;-65
2021/09/05 10:30:09;;;;;;;17.23;11.30;;;;;;;;;;5015149;28;20067;-64
2021/09/05 10:32:51;;;;;;;18.42;12.35;;;;;;;;;;5013937;28;20068;-65
2021/09/05 10:35:35;;;;;;;16.98;11.45;;;;;;;;;;5015537;28;20026;-65
2021/09/05 10:38:10;;;;;;;15.52;10.90;;;;;;;;;;5034959;28;20100;-65
2021/09/05 10:40:38;;;;;;;17.77;11.70;;;;;;;;;;5034510;28;20357;-65
2021/09/05 10:43:04;;;;;;;17.42;11.50;;;;;;;;;;5034719;28;20021;-65
2021/09/05 10:45:29;;;;;;;16.02;11.52;;;;;;;;;;5034377;28;20032;-65
2021/09/05 10:47:54;;;;;;;16.27;11.80;;;;;;;;;;5033229;28;20507;-65
2021/09/05 10:50:34;;;;;;;18.23;12.43;;;;;;;;;;5029468;28;20330;-65
2021/09/05 10:53:12;;;;;;;17.27;11.60;;;;;;;;;;5034273;28;20329;-65
2021/09/05 10:55:56;;;;;;;17.30;10.88;;;;;;;;;;5033871;28;20120;-65
2021/09/05 10:58:23;;;;;;;17.38;11.60;;;;;;;;;;5034238;28;20108;-65
2021/09/05 11:01:15;;;;;;;16.55;10.70;;;;;;;;;;5032250;28;20075;-65
2021/09/05 11:03:59;;;;;;;16.45;11.00;;;;;;;;;;5029884;28;20040;-65
2021/09/05 11:06:31;;;;;;;16.77;10.63;;;;;;;;;;5033408;28;20056;-65
2021/09/05 11:09:05;;;;;;;14.60;9.75;;;;;;;;;;5033955;28;20396;-65
2021/09/05 11:11:59;;;;;;;18.10;11.73;;;;;;;;;;5031887;28;20124;-65
2021/09/05 11:14:37;;;;;;;17.10;10.82;;;;;;;;;;4962609;28;20447;-65
2021/09/05 11:17:08;;;;;;;15.45;9.80;;;;;;;;;;5033314;28;20057;-65
2021/09/05 11:19:42;;;;;;;15.52;10.13;;;;;;;;;;5033493;28;20056;-65
2021/09/05 11:22:08;;;;;;;17.48;10.88;;;;;;;;;;5033182;28;20528;-65
2021/09/05 11:24:33;;;;;;;15.23;9.85;;;;;;;;;;5033532;28;20025;-65
2021/09/05 11:27:05;;;;;;;15.35;9.93;;;;;;;;;;5031798;28;20033;-65
2021/09/05 11:29:30;;;;;;;13.57;9.73;;;;;;;;;;5033738;28;20418;-65
2021/09/05 11:31:59;;;;;;;13.15;9.20;;;;;;;;;;5032815;28;20037;-65
2021/09/05 11:34:24;;;;;;;10.98;7.22;;;;;;;;;;5033292;28;20455;-65
2021/09/05 11:36:50;;;;;;;12.02;7.43;;;;;;;;;;5032914;28;20092;-65
2021/09/05 11:39:15;;;;;;;15.23;8.17;;;;;;;;;;5033412;28;20029;-65
2021/09/05 11:41:40;;;;;;;10.75;7.93;;;;;;;;;;5032681;28;20274;-65
2021/09/05 11:44:06;;;;;;;12.73;8.35;;;;;;;;;;5033564;28;20087;-65
2021/09/05 11:46:31;;;;;;;10.80;7.47;;;;;;;;;;5033080;28;20027;-65
2021/09/05 11:49:00;;;;;;;12.13;7.83;;;;;;;;;;5032059;28;20269;-65
2021/09/05 11:51:26;;;;;;;;;;;;;;;;;;5033207;28;20349;-65
2021/09/05 11:53:55;;;;;;;12.32;7.07;;;;;;;;;;5033250;28;19904;-65
2021/09/05 11:56:20;;;;;;;11.75;7.60;;;;;;;;;;5032661;28;20091;-65
2021/09/05 11:58:46;;;;;;;10.25;6.65;;;;;;;;;;5032054;28;20017;-65
2021/09/05 12:01:11;;;;;;;10.32;7.15;;;;;;;;;;5032396;28;20106;-65
2021/09/05 12:03:36;;;;;;;8.63;6.40;;;;;;;;;;5031699;28;20013;-65
2021/09/05 12:06:02;;;;;;;11.50;7.20;;;;;;;;;;5031402;28;20025;-65
2021/09/05 12:08:27;;;;;;;10.88;7.00;;;;;;;;;;5031652;28;20053;-65
2021/09/05 12:11:02;;;;;;;11.05;7.60;;;;;;;;;;5031124;28;20029;-64
2021/09/05 12:13:28;;;;;;;16.70;7.07;;;;;;;;;;5032973;28;20492;-65
2021/09/05 12:15:54;;;;;;;10.18;6.53;;;;;;;;;;5032425;28;20041;-65
2021/09/05 12:18:23;;;;;;;12.57;6.82;;;;;;;;;;5032899;28;20017;-64
2021/09/05 12:20:52;;;;;;;9.98;7.10;;;;;;;;;;5032453;28;20037;-65
2021/09/05 12:23:21;;;;;;;11.18;7.00;;;;;;;;;;5032756;28;20047;-64
2021/09/05 12:25:46;;;;;;;11.82;7.32;;;;;;;;;;5032285;28;20029;-64
2021/09/05 12:28:12;;;;;;;8.75;6.75;;;;;;;;;;5032572;28;20025;-65
2021/09/05 12:30:37;;;;;;;9.35;6.90;;;;;;;;;;5032338;28;20341;-64
2021/09/05 12:33:05;;;;;;;12.47;7.20;;;;;;;;;;5031351;28;20026;-65
2021/09/05 12:35:31;;;;;;;10.30;7.13;;;;;;;;;;5031921;28;20369;-65
2021/09/05 12:38:06;;;;;;;12.07;6.95;;;;;;;;;;5032552;28;20101;-64
2021/09/05 12:40:38;;;;;;;10.43;7.70;;;;;;;;;;5032348;28;20080;-65
2021/09/05 12:43:04;;;;;;;10.60;7.03;;;;;;;;;;5032287;28;20436;-65
2021/09/05 12:45:29;;;;;;;11.80;7.50;;;;;;;;;;5032116;28;20037;-65
2021/09/05 12:48:15;;;;;;;9.25;6.63;;;;;;;;;;5032190;28;20029;-65
2021/09/05 12:50:40;;;;;;;10.70;7.00;;;;;;;;;;5021604;28;20061;-64
2021/09/05 12:53:13;;;;;;;12.70;7.50;;;;;;;;;;5030933;28;20060;-65
2021/09/05 12:55:38;;;;;;;10.77;6.90;;;;;;;;;;5032393;28;20025;-65
2021/09/05 12:58:04;;;;;;;13.23;7.50;;;;;;;;;;5036157;28;20021;-65
2021/09/05 13:00:30;;;;;;;9.68;7.07;;;;;;;;;;5035896;28;20184;-64
2021/09/05 13:02:55;;;;;;;9.48;7.20;;;;;;;;;;5034994;28;20037;-65
2021/09/05 13:05:20;;;;;;;11.23;7.20;;;;;;;;;;5036243;28;20038;-65
2021/09/05 13:07:46;;;;;;;10.93;7.45;;;;;;;;;;5036547;28;20022;-65
2021/09/05 13:10:11;;;;;;;8.70;6.85;;;;;;;;;;5035747;28;20056;-65
2021/09/05 13:12:36;;;;;;;11.23;7.50;;;;;;;;;;5036414;28;20534;-65
2021/09/05 13:15:02;;;;;;;10.55;6.97;;;;;;;;;;5035952;28;20136;-65
2021/09/05 13:17:27;;;;;;;10.65;6.93;;;;;;;;;;5036327;28;20021;-65
2021/09/05 13:19:52;;;;;;;10.15;7.30;;;;;;;;;;5036450;28;20009;-64
2021/09/05 13:22:17;;;;;;;10.25;6.88;;;;;;;;;;5034733;28;20492;-65
2021/09/05 13:24:43;;;;;;;8.57;6.63;;;;;;;;;;5036385;28;20364;-65
2021/09/05 13:27:08;;;;;;;11.88;7.15;;;;;;;;;;5035756;28;20271;-65
2021/09/05 13:29:33;;;;;;;10.88;7.32;;;;;;;;;;5036187;28;20268;-64
2021/09/05 13:31:58;;;;;;;8.45;6.25;;;;;;;;;;5035153;28;20411;-65
2021/09/05 13:34:24;;;;;;;9.65;6.45;;;;;;;;;;5036057;28;20058;-65
2021/09/05 13:36:49;;;;;;;9.80;6.47;;;;;;;;;;5035558;28;20083;-65
2021/09/05 13:39:14;;;;;;;8.40;6.20;;;;;;;;;;5034540;28;20104;-65
2021/09/05 13:41:39;;;;;;;10.10;6.60;;;;;;;;;;5035506;28;20033;-65
2021/09/05 13:44:04;;;;;;;12.55;6.32;;;;;;;;;;5035963;28;20251;-65
2021/09/05 13:46:30;;;;;;;9.75;6.85;;;;;;;;;;5035405;28;20076;-65
2021/09/05 13:48:55;;;;;;;8.65;6.72;;;;;;;;;;5035922;28;20017;-65
2021/09/05 13:51:20;;;;;;;11.15;7.10;;;;;;;;;;5035168;28;20079;-65
2021/09/05 13:53:47;;;;;;;8.77;6.37;;;;;;;;;;5035759;28;20029;-65
2021/09/05 13:56:13;;;;;;;11.50;6.50;;;;;;;;;;5035417;28;20277;-65
2021/09/05 13:58:38;;;;;;;13.20;6.72;;;;;;;;;;5035689;28;20096;-65
2021/09/05 14:01:03;;;;;;;11.45;6.90;;;;;;;;;;5035187;28;20052;-65
2021/09/05 14:03:28;;;;;;;11.60;7.13;;;;;;;;;;5035633;28;20481;-65
2021/09/05 14:05:54;;;;;;;10.82;7.28;;;;;;;;;;5035077;28;20053;-65
2021/09/05 14:08:19;;;;;;;10.15;6.63;;;;;;;;;;5033750;28;20029;-65
2021/09/05 14:10:46;;;;;;;11.65;7.00;;;;;;;;;;5034811;28;20124;-64
2021/09/05 14:13:11;;;;;;;8.07;5.95;;;;;;;;;;5035141;28;20120;-65
2021/09/05 14:15:36;;;;;;;10.30;6.47;;;;;;;;;;5034763;28;20108;-65